Time;durP1;ratioP1;P1;durP2;ratioP2;P2;SDS_P1;SDS_P2;PMS_P1;PMS_P2;Temp;Humidity;BMP_temperature;BMP_pressure;BME280_temperature;BME280_humidity;BME280_pressure;Samples;Min_cycle;Max_cycle;Signal;HPM_P1;HPM_P2
2021/12/11 00:00:33;;;;;;;93.25;31.60;;;;;;;;;;4977778;28;20471;-41
2021/12/11 00:03:02;;;;;;;104.10;32.38;;;;;;;;;;4982975;28;20458;-40
2021/12/11 00:05:29;;;;;;;92.32;33.30;;;;;;;;;;4980794;28;20085;-40
2021/12/11 00:07:56;;;;;;;98.60;34.40;;;;;;;;;;4980639;28;20026;-40
2021/12/11 00:10:25;;;;;;;95.95;34.40;;;;;;;;;;4976412;28;20106;-40
2021/12/11 00:12:54;;;;;;;97.82;32.08;;;;;;;;;;4981175;28;20121;-40
2021/12/11 00:15:22;;;;;;;92.35;32.03;;;;;;;;;;4979289;28;20109;-40
2021/12/11 00:17:49;;;;;;;91.47;32.42;;;;;;;;;;4980421;28;20026;-40
2021/12/11 00:20:21;;;;;;;79.35;28.90;;;;;;;;;;4980080;28;20062;-40
2021/12/11 00:22:48;;;;;;;83.88;30.58;;;;;;;;;;4994714;28;20022;-40
2021/12/11 00:25:15;;;;;;;90.90;30.25;;;;;;;;;;4990233;28;20053;-40
2021/12/11 00:27:42;;;;;;;83.78;30.45;;;;;;;;;;4981865;28;20030;-40
2021/12/11 00:30:10;;;;;;;80.82;29.27;;;;;;;;;;4988331;28;20033;-40
2021/12/11 00:32:37;;;;;;;82.43;31.67;;;;;;;;;;4983903;28;20030;-40
2021/12/11 00:35:14;;;;;;;79.55;30.35;;;;;;;;;;4988092;28;20030;-40
2021/12/11 00:37:41;;;;;;;85.40;29.25;;;;;;;;;;4987071;28;20057;-41
2021/12/11 00:40:07;;;;;;;90.00;30.88;;;;;;;;;;4987029;28;20321;-41
2021/12/11 00:42:36;;;;;;;75.75;27.48;;;;;;;;;;4983002;28;20457;-41
2021/12/11 00:45:09;;;;;;;80.72;30.33;;;;;;;;;;4984059;28;20493;-40
2021/12/11 00:47:41;;;;;;;79.43;29.33;;;;;;;;;;4983001;28;20069;-41
2021/12/11 00:50:09;;;;;;;84.50;29.88;;;;;;;;;;4985597;28;20058;-41
2021/12/11 00:52:35;;;;;;;81.05;29.70;;;;;;;;;;4983930;28;20053;-40
2021/12/11 00:55:04;;;;;;;73.38;29.45;;;;;;;;;;4987899;28;20381;-41
2021/12/11 00:57:31;;;;;;;76.18;26.73;;;;;;;;;;4989406;28;20030;-41
2021/12/11 01:00:05;;;;;;;72.05;28.70;;;;;;;;;;4987631;28;20127;-40
2021/12/11 01:02:31;;;;;;;72.90;27.25;;;;;;;;;;4988853;28;20033;-41
2021/12/11 01:04:57;;;;;;;82.32;29.70;;;;;;;;;;4989061;28;20581;-40
2021/12/11 01:07:30;;;;;;;79.60;28.58;;;;;;;;;;4990202;28;20053;-40
2021/12/11 01:09:58;;;;;;;77.30;27.55;;;;;;;;;;4988479;28;20092;-40
2021/12/11 01:12:27;;;;;;;85.75;28.10;;;;;;;;;;4991647;28;20029;-41
2021/12/11 01:14:59;;;;;;;79.78;28.98;;;;;;;;;;4993006;28;20061;-40
2021/12/11 01:18:21;;;;;;;77.57;29.90;;;;;;;;;;4987240;28;20045;-40
2021/12/11 01:21:03;;;;;;;82.53;29.80;;;;;;;;;;4986756;28;20420;-41
2021/12/11 01:23:47;;;;;;;74.35;27.25;;;;;;;;;;4987996;28;20030;-40
2021/12/11 01:26:15;;;;;;;80.95;29.77;;;;;;;;;;4990515;28;20034;-40
2021/12/11 01:28:41;;;;;;;82.13;31.05;;;;;;;;;;4993861;28;20031;-40
2021/12/11 01:31:09;;;;;;;84.20;28.42;;;;;;;;;;4990164;28;20034;-40
2021/12/11 01:33:36;;;;;;;76.03;30.55;;;;;;;;;;4992734;28;20033;-40
2021/12/11 01:36:04;;;;;;;79.63;29.45;;;;;;;;;;4991879;28;20058;-40
2021/12/11 01:38:30;;;;;;;80.95;29.40;;;;;;;;;;4990993;28;20061;-41
2021/12/11 01:40:58;;;;;;;82.45;28.75;;;;;;;;;;4993447;28;20558;-41
2021/12/11 01:43:26;;;;;;;78.22;29.88;;;;;;;;;;4992623;28;20591;-40
2021/12/11 01:45:54;;;;;;;84.82;30.33;;;;;;;;;;4992061;28;20034;-41
2021/12/11 01:48:21;;;;;;;75.82;30.33;;;;;;;;;;4992480;28;20030;-40
2021/12/11 01:50:54;;;;;;;75.88;29.60;;;;;;;;;;4991989;28;20477;-41
2021/12/11 01:53:23;;;;;;;75.25;29.83;;;;;;;;;;4992267;28;20069;-41
2021/12/11 01:55:58;;;;;;;82.10;28.77;;;;;;;;;;4988779;28;20041;-41
2021/12/11 01:58:29;;;;;;;86.93;30.43;;;;;;;;;;4991625;28;20033;-40
2021/12/11 02:00:58;;;;;;;80.95;30.85;;;;;;;;;;4990993;28;20490;-41
2021/12/11 02:03:26;;;;;;;77.30;29.83;;;;;;;;;;4988305;28;20022;-40
2021/12/11 02:05:52;;;;;;;82.03;28.08;;;;;;;;;;4991777;28;20064;-41
2021/12/11 02:08:23;;;;;;;82.43;29.80;;;;;;;;;;4988488;28;20030;-41
2021/12/11 02:11:04;;;;;;;77.05;29.10;;;;;;;;;;4985470;28;20062;-40
2021/12/11 02:13:39;;;;;;;74.57;28.40;;;;;;;;;;4990896;28;20085;-40
2021/12/11 02:16:07;;;;;;;79.57;30.30;;;;;;;;;;4990948;28;20086;-41
2021/12/11 02:18:35;;;;;;;80.78;30.08;;;;;;;;;;4988901;28;20031;-41
2021/12/11 02:21:05;;;;;;;83.20;28.52;;;;;;;;;;4988502;28;20473;-41
2021/12/11 02:23:31;;;;;;;74.88;28.33;;;;;;;;;;4981464;28;20023;-40
2021/12/11 02:26:00;;;;;;;80.28;26.35;;;;;;;;;;4990980;28;20494;-41
2021/12/11 02:28:32;;;;;;;74.45;27.80;;;;;;;;;;4979742;28;20037;-41
2021/12/11 02:31:05;;;;;;;83.20;29.52;;;;;;;;;;4990304;28;20061;-41
2021/12/11 02:33:31;;;;;;;78.13;28.55;;;;;;;;;;4983511;28;20023;-41
2021/12/11 02:36:09;;;;;;;72.80;29.48;;;;;;;;;;4986785;28;20628;-41
2021/12/11 02:38:38;;;;;;;67.75;26.80;;;;;;;;;;4993116;28;20055;-41
2021/12/11 02:41:11;;;;;;;76.68;28.17;;;;;;;;;;4992083;28;20029;-41
2021/12/11 02:43:41;;;;;;;80.25;29.05;;;;;;;;;;4991355;28;20026;-41
2021/12/11 02:46:07;;;;;;;84.03;30.48;;;;;;;;;;4984447;28;20046;-40
2021/12/11 02:48:36;;;;;;;68.88;26.48;;;;;;;;;;4991828;28;20089;-41
2021/12/11 02:51:15;;;;;;;82.03;29.77;;;;;;;;;;4991940;28;20054;-41
2021/12/11 02:53:46;;;;;;;72.60;28.20;;;;;;;;;;4989112;28;20085;-40
2021/12/11 02:56:15;;;;;;;74.82;27.65;;;;;;;;;;4985838;28;20081;-41
2021/12/11 02:58:44;;;;;;;81.88;30.08;;;;;;;;;;5014382;22;20038;-38
2021/12/11 03:01:24;;;;;;;83.65;27.33;;;;;;;;;;5009548;28;20025;-38
2021/12/11 03:03:57;;;;;;;67.72;26.98;;;;;;;;;;5008136;28;20026;-38
2021/12/11 03:06:26;;;;;;;83.35;28.42;;;;;;;;;;5012167;28;20392;-38
2021/12/11 03:08:53;;;;;;;81.55;29.55;;;;;;;;;;5009214;28;20061;-38
2021/12/11 03:11:21;;;;;;;87.43;28.40;;;;;;;;;;4999668;28;20068;-38
2021/12/11 03:13:50;;;;;;;80.68;27.35;;;;;;;;;;5002131;28;20056;-38
2021/12/11 03:16:21;;;;;;;68.82;26.38;;;;;;;;;;5001223;28;20065;-38
2021/12/11 03:18:47;;;;;;;83.15;29.80;;;;;;;;;;5001097;28;20102;-38
2021/12/11 03:21:13;;;;;;;79.60;28.42;;;;;;;;;;5003053;28;20523;-38
2021/12/11 03:23:40;;;;;;;82.10;28.75;;;;;;;;;;4999186;28;20037;-38
2021/12/11 03:26:06;;;;;;;83.88;29.23;;;;;;;;;;5001604;28;20034;-38
2021/12/11 03:28:32;;;;;;;80.60;28.95;;;;;;;;;;4997072;28;20102;-38
2021/12/11 03:31:00;;;;;;;77.80;27.85;;;;;;;;;;4996202;28;20469;-38
2021/12/11 03:33:28;;;;;;;78.68;27.85;;;;;;;;;;5001479;28;20444;-38
2021/12/11 03:35:55;;;;;;;81.20;29.77;;;;;;;;;;4997305;28;20084;-38
2021/12/11 03:38:22;;;;;;;87.25;29.85;;;;;;;;;;4997995;28;20050;-38
2021/12/11 03:40:48;;;;;;;76.50;28.67;;;;;;;;;;4995764;28;20022;-38
2021/12/11 03:43:17;;;;;;;77.88;27.65;;;;;;;;;;4999774;28;20168;-38
2021/12/11 03:45:44;;;;;;;84.20;29.70;;;;;;;;;;5002109;28;20026;-38
2021/12/11 03:48:16;;;;;;;83.30;28.40;;;;;;;;;;5003431;28;20432;-38
2021/12/11 03:50:43;;;;;;;75.50;28.52;;;;;;;;;;5003394;28;20083;-38
2021/12/11 03:53:09;;;;;;;66.68;26.58;;;;;;;;;;5003083;28;20481;-38
2021/12/11 03:55:38;;;;;;;77.85;25.73;;;;;;;;;;5005408;28;20033;-38
2021/12/11 03:58:04;;;;;;;90.18;29.92;;;;;;;;;;5004243;28;20189;-38
2021/12/11 04:00:33;;;;;;;84.78;29.88;;;;;;;;;;5000420;28;20022;-38
2021/12/11 04:03:04;;;;;;;79.70;29.80;;;;;;;;;;5000568;28;20034;-38
2021/12/11 04:05:31;;;;;;;93.97;29.77;;;;;;;;;;5003886;28;20032;-38
2021/12/11 04:07:57;;;;;;;83.85;28.27;;;;;;;;;;5003587;28;20493;-38
2021/12/11 04:10:27;;;;;;;87.65;30.17;;;;;;;;;;5000239;28;20057;-38
2021/12/11 04:12:53;;;;;;;86.97;32.25;;;;;;;;;;5003933;28;20022;-38
2021/12/11 04:15:19;;;;;;;81.80;29.15;;;;;;;;;;5009073;28;20025;-38
2021/12/11 04:17:45;;;;;;;84.75;29.95;;;;;;;;;;5008472;28;20068;-38
2021/12/11 04:20:14;;;;;;;77.55;26.52;;;;;;;;;;5008787;28;20036;-38
2021/12/11 04:22:41;;;;;;;72.35;26.85;;;;;;;;;;5004129;28;20052;-38
2021/12/11 04:25:09;;;;;;;82.00;27.75;;;;;;;;;;5008115;28;20072;-38
2021/12/11 04:27:35;;;;;;;80.03;27.40;;;;;;;;;;5004318;28;20420;-38
2021/12/11 04:30:04;;;;;;;80.72;28.58;;;;;;;;;;5003024;28;20026;-38
2021/12/11 04:32:33;;;;;;;83.70;28.65;;;;;;;;;;4999338;28;20022;-38
2021/12/11 04:34:59;;;;;;;87.00;27.27;;;;;;;;;;5008525;28;20071;-38
2021/12/11 04:37:28;;;;;;;86.22;30.10;;;;;;;;;;5002329;28;20401;-38
2021/12/11 04:39:59;;;;;;;70.63;27.17;;;;;;;;;;5000585;28;20066;-38
2021/12/11 04:45:11;;;;;;;;;;;;;;;;;;5007649;28;20088;-38
2021/12/11 04:47:47;;;;;;;75.35;27.30;;;;;;;;;;5003353;28;19949;-38
2021/12/11 04:50:22;;;;;;;85.53;30.55;;;;;;;;;;5002277;28;20072;-38
2021/12/11 04:52:54;;;;;;;86.70;27.55;;;;;;;;;;5002781;28;20034;-38
2021/12/11 05:03:30;;;;;;;98.57;32.10;;;;;;;;;;5005808;28;20038;-38
2021/12/11 05:11:02;;;;;;;96.78;30.95;;;;;;;;;;5001490;28;20042;-38
2021/12/11 05:13:29;;;;;;;90.43;31.95;;;;;;;;;;5006794;28;20149;-38
2021/12/11 05:15:56;;;;;;;83.95;32.78;;;;;;;;;;5008461;28;20080;-38
2021/12/11 05:18:25;;;;;;;103.25;32.13;;;;;;;;;;5022551;28;20385;-38
2021/12/11 05:20:53;;;;;;;83.63;30.08;;;;;;;;;;5012297;28;20545;-38
2021/12/11 05:23:20;;;;;;;87.35;30.80;;;;;;;;;;5005561;28;20037;-38
2021/12/11 05:25:46;;;;;;;93.95;32.42;;;;;;;;;;5012083;28;20590;-38
2021/12/11 05:28:12;;;;;;;98.07;32.28;;;;;;;;;;5023244;28;20037;-38
2021/12/11 05:30:42;;;;;;;95.20;33.40;;;;;;;;;;5020924;28;20066;-38
2021/12/11 05:33:08;;;;;;;88.95;30.33;;;;;;;;;;5016234;28;20065;-38
2021/12/11 05:35:36;;;;;;;99.93;29.67;;;;;;;;;;5013537;28;20065;-38
2021/12/11 05:38:03;;;;;;;87.25;30.67;;;;;;;;;;5011447;28;20049;-38
2021/12/11 05:40:30;;;;;;;88.35;29.02;;;;;;;;;;5010697;28;20068;-38
2021/12/11 05:42:56;;;;;;;79.85;29.15;;;;;;;;;;5010546;28;20057;-38
2021/12/11 05:45:22;;;;;;;90.85;30.10;;;;;;;;;;5010923;28;20457;-38
2021/12/11 05:47:48;;;;;;;90.50;29.52;;;;;;;;;;5012431;28;20065;-38
2021/12/11 05:50:21;;;;;;;96.00;29.83;;;;;;;;;;5021665;28;20386;-38
2021/12/11 05:52:48;;;;;;;83.72;28.38;;;;;;;;;;5006759;28;20044;-38
2021/12/11 05:55:17;;;;;;;95.15;29.45;;;;;;;;;;5010093;28;20175;-38
2021/12/11 05:57:50;;;;;;;77.25;27.70;;;;;;;;;;5011318;28;20022;-38
2021/12/11 06:00:19;;;;;;;85.78;28.63;;;;;;;;;;5013805;28;20030;-38
2021/12/11 06:02:45;;;;;;;93.47;28.20;;;;;;;;;;5027507;28;20045;-38
2021/12/11 06:05:11;;;;;;;81.95;28.77;;;;;;;;;;5013697;28;20503;-38
2021/12/11 06:07:42;;;;;;;90.68;28.40;;;;;;;;;;5013197;28;20065;-38
2021/12/11 06:10:10;;;;;;;79.72;27.98;;;;;;;;;;5027557;28;20037;-38
2021/12/11 06:12:36;;;;;;;79.97;25.95;;;;;;;;;;5023832;28;20030;-38
2021/12/11 06:15:03;;;;;;;77.60;27.15;;;;;;;;;;5015556;28;20484;-38
2021/12/11 06:17:31;;;;;;;79.10;27.65;;;;;;;;;;5014619;28;20062;-38
2021/12/11 06:19:58;;;;;;;82.07;27.52;;;;;;;;;;5024896;28;20052;-38
2021/12/11 06:22:29;;;;;;;83.80;27.92;;;;;;;;;;5015323;28;20085;-38
2021/12/11 06:24:56;;;;;;;81.95;27.58;;;;;;;;;;5013433;28;20519;-38
2021/12/11 06:27:23;;;;;;;84.97;30.98;;;;;;;;;;5019808;28;20065;-37
2021/12/11 06:29:49;;;;;;;84.00;27.15;;;;;;;;;;5023386;28;20053;-38
2021/12/11 06:32:15;;;;;;;95.00;27.40;;;;;;;;;;5020466;28;20072;-38
2021/12/11 06:34:41;;;;;;;92.20;26.90;;;;;;;;;;5016462;28;20057;-38
2021/12/11 06:37:08;;;;;;;83.53;27.65;;;;;;;;;;5017675;28;20029;-37
2021/12/11 06:39:35;;;;;;;78.75;25.80;;;;;;;;;;5013087;28;21656;-37
2021/12/11 06:42:03;;;;;;;79.03;27.23;;;;;;;;;;5017366;28;20168;-37
2021/12/11 06:44:29;;;;;;;97.18;29.50;;;;;;;;;;5014330;28;20018;-37
2021/12/11 06:46:57;;;;;;;94.75;28.08;;;;;;;;;;5018014;28;20033;-37
2021/12/11 06:49:23;;;;;;;81.00;28.45;;;;;;;;;;5015502;28;20435;-38
2021/12/11 06:51:49;;;;;;;97.63;29.15;;;;;;;;;;5033156;28;20072;-38
2021/12/11 06:54:16;;;;;;;91.72;30.88;;;;;;;;;;5015927;28;20138;-38
2021/12/11 06:56:41;;;;;;;88.53;27.92;;;;;;;;;;5027087;28;20029;-38
2021/12/11 06:59:08;;;;;;;83.70;27.77;;;;;;;;;;5012124;28;20026;-38
2021/12/11 07:01:35;;;;;;;93.47;28.48;;;;;;;;;;5033060;28;20040;-38
2021/12/11 07:04:02;;;;;;;101.03;29.23;;;;;;;;;;5013071;28;20512;-38
2021/12/11 07:06:29;;;;;;;92.72;27.65;;;;;;;;;;5021708;28;20625;-38
2021/12/11 07:08:55;;;;;;;83.18;26.35;;;;;;;;;;5020387;28;20029;-37
2021/12/11 07:11:21;;;;;;;74.30;27.65;;;;;;;;;;5017223;28;20026;-38
2021/12/11 07:13:47;;;;;;;83.90;27.00;;;;;;;;;;5019822;28;20103;-38
2021/12/11 07:16:14;;;;;;;81.15;27.42;;;;;;;;;;5016699;28;20034;-38
2021/12/11 07:18:40;;;;;;;78.55;27.73;;;;;;;;;;5012901;28;20014;-38
2021/12/11 07:21:06;;;;;;;84.80;26.13;;;;;;;;;;5004806;28;20014;-38
2021/12/11 07:23:33;;;;;;;85.57;27.45;;;;;;;;;;5009610;28;20064;-38
2021/12/11 07:25:59;;;;;;;80.90;28.05;;;;;;;;;;5004066;28;20042;-38
2021/12/11 07:28:25;;;;;;;74.57;28.02;;;;;;;;;;5007324;28;20017;-38
2021/12/11 07:30:52;;;;;;;91.55;27.85;;;;;;;;;;5010472;28;20057;-38
2021/12/11 07:33:19;;;;;;;82.57;26.58;;;;;;;;;;5010657;28;20476;-38
2021/12/11 07:35:45;;;;;;;72.00;27.30;;;;;;;;;;5011640;28;20069;-37
2021/12/11 07:38:12;;;;;;;76.70;27.33;;;;;;;;;;5011438;28;20472;-38
2021/12/11 07:40:41;;;;;;;76.50;26.98;;;;;;;;;;5013974;28;20025;-37
2021/12/11 07:43:08;;;;;;;83.15;27.00;;;;;;;;;;5013538;28;20515;-38
2021/12/11 07:45:35;;;;;;;66.45;25.15;;;;;;;;;;5008471;28;20080;-37
2021/12/11 07:48:01;;;;;;;72.55;25.20;;;;;;;;;;5010504;28;20101;-38
2021/12/11 07:50:28;;;;;;;71.10;24.92;;;;;;;;;;5011857;28;20373;-37
2021/12/11 07:52:54;;;;;;;77.03;24.17;;;;;;;;;;5009898;28;20034;-38
2021/12/11 07:55:21;;;;;;;65.15;25.67;;;;;;;;;;5007419;28;20033;-37
2021/12/11 07:57:47;;;;;;;80.47;26.02;;;;;;;;;;5010535;28;20053;-38
2021/12/11 08:00:16;;;;;;;88.28;27.00;;;;;;;;;;5005882;28;20033;-37
2021/12/11 08:02:42;;;;;;;81.38;26.58;;;;;;;;;;5008082;28;20068;-38
2021/12/11 08:05:09;;;;;;;157.75;52.70;;;;;;;;;;5009372;28;20060;-37
2021/12/11 08:07:36;;;;;;;87.60;33.63;;;;;;;;;;5007528;28;20029;-38
2021/12/11 08:10:02;;;;;;;85.63;31.00;;;;;;;;;;5008910;28;20033;-38
2021/12/11 08:12:28;;;;;;;222.00;83.25;;;;;;;;;;5005141;28;20058;-38
2021/12/11 08:14:54;;;;;;;109.55;38.92;;;;;;;;;;5015151;28;20069;-38
2021/12/11 08:17:20;;;;;;;96.07;31.67;;;;;;;;;;5009341;28;20045;-38
2021/12/11 08:19:46;;;;;;;94.75;30.83;;;;;;;;;;5009328;28;20470;-38
2021/12/11 08:22:13;;;;;;;77.10;27.58;;;;;;;;;;5006485;28;20117;-38
2021/12/11 08:24:40;;;;;;;71.32;27.35;;;;;;;;;;5002395;28;20030;-38
2021/12/11 08:27:10;;;;;;;73.45;27.20;;;;;;;;;;5005170;28;20570;-37
2021/12/11 08:29:37;;;;;;;84.55;26.27;;;;;;;;;;4997298;28;20036;-38
2021/12/11 08:32:03;;;;;;;70.65;27.05;;;;;;;;;;4999115;28;20421;-38
2021/12/11 08:34:30;;;;;;;69.20;25.98;;;;;;;;;;5002045;28;20166;-38
2021/12/11 08:36:56;;;;;;;72.30;25.65;;;;;;;;;;5009813;28;20812;-38
2021/12/11 08:39:23;;;;;;;70.20;25.25;;;;;;;;;;4994951;28;20884;-38
2021/12/11 08:41:50;;;;;;;58.83;24.75;;;;;;;;;;5000616;28;20477;-38
2021/12/11 08:44:17;;;;;;;71.57;27.48;;;;;;;;;;5005641;28;20048;-38
2021/12/11 08:46:47;;;;;;;57.00;23.65;;;;;;;;;;5005296;28;20485;-38
2021/12/11 08:49:15;;;;;;;54.42;21.75;;;;;;;;;;5007029;28;20046;-38
2021/12/11 08:51:48;;;;;;;49.75;21.52;;;;;;;;;;5006453;28;20516;-38
2021/12/11 08:54:15;;;;;;;46.60;20.67;;;;;;;;;;5009076;28;20017;-38
2021/12/11 08:56:41;;;;;;;55.53;21.55;;;;;;;;;;5011551;28;20033;-38
2021/12/11 08:59:09;;;;;;;45.15;19.23;;;;;;;;;;5008169;28;20030;-38
2021/12/11 09:01:41;;;;;;;48.47;20.73;;;;;;;;;;5012044;28;20026;-38
2021/12/11 09:04:12;;;;;;;48.67;21.42;;;;;;;;;;5010365;28;20024;-38
2021/12/11 09:06:43;;;;;;;43.30;20.23;;;;;;;;;;5005636;28;20062;-38
2021/12/11 09:09:14;;;;;;;46.47;21.10;;;;;;;;;;5007113;28;20481;-37
2021/12/11 09:11:42;;;;;;;48.85;20.92;;;;;;;;;;5002835;28;20025;-38
2021/12/11 09:14:14;;;;;;;52.15;22.00;;;;;;;;;;5006600;28;20026;-39
2021/12/11 09:16:44;;;;;;;50.42;21.08;;;;;;;;;;5012066;28;20076;-36
2021/12/11 09:19:22;;;;;;;47.38;20.42;;;;;;;;;;5003707;28;20030;-38
2021/12/11 09:21:51;;;;;;;42.28;19.13;;;;;;;;;;5013328;28;20586;-37
2021/12/11 09:24:26;;;;;;;45.63;20.48;;;;;;;;;;5006901;28;20776;-36
2021/12/11 09:26:52;;;;;;;;;;;;;;;;;;5008842;28;20092;-39
2021/12/11 09:29:22;;;;;;;47.78;20.02;;;;;;;;;;5014548;28;20337;-38
2021/12/11 09:32:00;;;;;;;45.30;20.55;;;;;;;;;;5017714;28;20026;-42
2021/12/11 09:34:29;;;;;;;44.47;20.73;;;;;;;;;;4995523;28;20101;-39
2021/12/11 09:36:57;;;;;;;49.97;19.92;;;;;;;;;;5011606;28;20062;-38
2021/12/11 09:39:29;;;;;;;46.92;20.55;;;;;;;;;;5012386;28;20481;-40
2021/12/11 09:41:55;;;;;;;47.72;19.27;;;;;;;;;;5016646;28;20107;-37
2021/12/11 09:44:23;;;;;;;44.22;20.25;;;;;;;;;;5014142;28;20026;-39
2021/12/11 09:46:52;;;;;;;43.67;19.42;;;;;;;;;;5009100;28;20022;-39
2021/12/11 09:49:19;;;;;;;44.50;19.50;;;;;;;;;;5010757;28;20052;-42
2021/12/11 09:51:47;;;;;;;38.10;20.35;;;;;;;;;;5012015;28;20057;-36
2021/12/11 09:54:18;;;;;;;50.08;19.95;;;;;;;;;;5004235;28;20020;-37
2021/12/11 09:56:53;;;;;;;45.30;20.30;;;;;;;;;;4999812;28;20110;-43
2021/12/11 09:59:22;;;;;;;47.15;21.20;;;;;;;;;;4999636;28;20026;-38
2021/12/11 10:01:50;;;;;;;46.25;23.73;;;;;;;;;;5001551;28;20112;-40
2021/12/11 10:04:28;;;;;;;48.83;23.27;;;;;;;;;;5001615;28;20061;-38
2021/12/11 10:09:27;;;;;;;48.03;22.85;;;;;;;;;;5000764;28;20034;-36
2021/12/11 10:11:53;;;;;;;44.58;19.77;;;;;;;;;;5003595;28;20026;-37
2021/12/11 10:14:20;;;;;;;42.08;19.25;;;;;;;;;;4999974;28;20033;-36
2021/12/11 10:16:48;;;;;;;41.72;19.13;;;;;;;;;;5004954;28;20037;-36
2021/12/11 10:19:15;;;;;;;39.90;18.75;;;;;;;;;;5005752;28;20079;-44
2021/12/11 10:21:47;;;;;;;44.58;18.10;;;;;;;;;;4998161;28;20081;-41
2021/12/11 10:24:15;;;;;;;33.30;16.38;;;;;;;;;;5001034;28;20030;-39
2021/12/11 10:26:41;;;;;;;39.30;17.45;;;;;;;;;;5009535;28;20080;-39
2021/12/11 10:29:10;;;;;;;36.72;16.25;;;;;;;;;;5004180;28;20038;-36
2021/12/11 10:31:39;;;;;;;40.13;16.90;;;;;;;;;;5002203;28;20049;-36
2021/12/11 10:34:07;;;;;;;30.85;15.50;;;;;;;;;;5001489;28;20030;-38
2021/12/11 10:36:35;;;;;;;33.10;16.05;;;;;;;;;;4996665;28;20111;-36
2021/12/11 10:39:02;;;;;;;34.33;15.57;;;;;;;;;;5001168;28;20080;-39
2021/12/11 10:41:29;;;;;;;37.95;15.82;;;;;;;;;;5001637;28;20024;-37
2021/12/11 10:44:00;;;;;;;36.30;17.55;;;;;;;;;;4999087;28;20037;-37
2021/12/11 10:46:30;;;;;;;42.33;16.98;;;;;;;;;;4995935;28;20050;-37
2021/12/11 10:48:57;;;;;;;32.67;15.50;;;;;;;;;;5004928;28;20061;-39
2021/12/11 10:51:29;;;;;;;26.77;14.77;;;;;;;;;;5000416;28;20072;-40
2021/12/11 10:53:55;;;;;;;30.17;15.32;;;;;;;;;;4998090;28;20038;-39
2021/12/11 10:56:22;;;;;;;35.45;17.10;;;;;;;;;;5003153;28;20040;-38
2021/12/11 10:58:50;;;;;;;30.23;14.93;;;;;;;;;;4999787;28;20105;-36
2021/12/11 11:01:21;;;;;;;33.45;16.13;;;;;;;;;;4998938;28;20479;-39
2021/12/11 11:03:49;;;;;;;28.55;14.77;;;;;;;;;;5001475;28;20022;-36
2021/12/11 11:06:15;;;;;;;33.17;16.33;;;;;;;;;;5001131;28;20057;-38
2021/12/11 11:08:42;;;;;;;28.75;13.80;;;;;;;;;;4997777;28;20088;-37
2021/12/11 11:11:10;;;;;;;33.97;16.25;;;;;;;;;;4998452;28;20022;-37
2021/12/11 11:13:36;;;;;;;27.95;14.88;;;;;;;;;;5004609;28;20085;-39
2021/12/11 11:16:02;;;;;;;31.25;14.50;;;;;;;;;;5002689;28;20084;-36
2021/12/11 11:18:29;;;;;;;26.83;14.70;;;;;;;;;;5002586;28;20026;-36
2021/12/11 11:21:01;;;;;;;28.40;14.85;;;;;;;;;;5007725;28;20033;-40
2021/12/11 11:23:27;;;;;;;29.63;14.30;;;;;;;;;;5005874;28;20029;-38
2021/12/11 11:25:54;;;;;;;26.70;14.27;;;;;;;;;;5007777;28;20623;-36
2021/12/11 11:28:22;;;;;;;28.73;14.50;;;;;;;;;;5005646;28;20065;-37
2021/12/11 11:30:51;;;;;;;29.05;14.70;;;;;;;;;;5005203;28;20064;-36
2021/12/11 11:33:19;;;;;;;29.35;15.10;;;;;;;;;;5007366;28;20145;-42
2021/12/11 11:35:47;;;;;;;39.13;19.55;;;;;;;;;;5009138;28;20464;-37
2021/12/11 11:38:16;;;;;;;33.28;17.00;;;;;;;;;;5009990;28;20026;-39
2021/12/11 11:40:44;;;;;;;28.20;16.13;;;;;;;;;;5011687;28;20017;-38
2021/12/11 11:43:11;;;;;;;33.40;16.40;;;;;;;;;;5009162;28;20014;-38
2021/12/11 11:45:38;;;;;;;33.90;15.93;;;;;;;;;;5014283;28;20049;-38
2021/12/11 11:48:05;;;;;;;34.30;16.02;;;;;;;;;;5010699;28;20504;-38
2021/12/11 11:50:33;;;;;;;31.00;16.45;;;;;;;;;;5013551;28;20073;-38
2021/12/11 11:52:59;;;;;;;32.78;14.18;;;;;;;;;;5010793;28;20385;-38
2021/12/11 11:55:28;;;;;;;26.65;13.85;;;;;;;;;;5008204;28;20048;-37
2021/12/11 11:57:55;;;;;;;58.03;17.95;;;;;;;;;;5007061;28;20084;-38
2021/12/11 12:00:43;;;;;;;25.25;13.88;;;;;;;;;;5008013;28;20555;-38
2021/12/11 12:03:10;;;;;;;32.53;14.50;;;;;;;;;;5007938;28;20032;-41
2021/12/11 12:05:37;;;;;;;25.95;14.05;;;;;;;;;;5006963;28;20049;-37
2021/12/11 12:08:04;;;;;;;25.27;13.15;;;;;;;;;;5009516;28;20719;-38
2021/12/11 12:10:30;;;;;;;28.70;14.82;;;;;;;;;;5004544;28;20421;-39
2021/12/11 12:12:56;;;;;;;26.33;13.68;;;;;;;;;;5004569;28;20113;-38
2021/12/11 12:15:28;;;;;;;30.58;13.45;;;;;;;;;;5007088;28;20108;-40
2021/12/11 12:17:54;;;;;;;28.45;13.18;;;;;;;;;;5008853;28;20021;-37
2021/12/11 12:20:20;;;;;;;23.38;12.40;;;;;;;;;;5009510;28;20110;-37
2021/12/11 12:22:48;;;;;;;27.42;13.52;;;;;;;;;;5011493;28;20100;-38
2021/12/11 12:25:14;;;;;;;24.63;12.80;;;;;;;;;;5002145;28;20052;-38
2021/12/11 12:27:42;;;;;;;28.65;14.57;;;;;;;;;;4998697;28;20030;-38
2021/12/11 12:30:12;;;;;;;23.60;11.70;;;;;;;;;;4997571;28;20061;-38
2021/12/11 12:32:38;;;;;;;21.50;10.52;;;;;;;;;;5006065;28;20025;-38
2021/12/11 12:35:07;;;;;;;22.08;11.10;;;;;;;;;;4999309;28;20092;-39
2021/12/11 12:37:34;;;;;;;23.80;12.23;;;;;;;;;;5001974;28;20076;-40
2021/12/11 12:40:01;;;;;;;26.77;10.93;;;;;;;;;;5001276;28;20899;-36
2021/12/11 12:42:34;;;;;;;19.83;10.77;;;;;;;;;;5002427;28;20030;-37
2021/12/11 12:45:07;;;;;;;18.83;9.63;;;;;;;;;;4998189;28;20030;-38
2021/12/11 12:47:35;;;;;;;22.92;11.32;;;;;;;;;;5001146;28;20493;-38
2021/12/11 12:50:06;;;;;;;19.38;10.55;;;;;;;;;;5005504;28;20026;-38
2021/12/11 12:52:35;;;;;;;26.00;11.05;;;;;;;;;;5008596;28;20061;-38
2021/12/11 12:55:10;;;;;;;26.15;11.80;;;;;;;;;;5005916;28;20034;-37
2021/12/11 12:57:39;;;;;;;21.38;9.52;;;;;;;;;;5000227;28;20029;-37
2021/12/11 13:00:24;;;;;;;16.70;8.98;;;;;;;;;;4996264;28;20064;-40
2021/12/11 13:02:52;;;;;;;24.83;10.52;;;;;;;;;;5007160;28;20108;-38
2021/12/11 13:05:20;;;;;;;22.90;11.63;;;;;;;;;;5005201;28;20068;-36
2021/12/11 13:07:47;;;;;;;22.77;11.07;;;;;;;;;;5008001;28;20026;-38
2021/12/11 13:10:17;;;;;;;24.50;9.15;;;;;;;;;;5012927;28;20069;-37
2021/12/11 13:12:45;;;;;;;21.63;10.05;;;;;;;;;;5011103;28;20413;-40
2021/12/11 13:15:21;;;;;;;26.98;11.77;;;;;;;;;;5012105;28;20057;-38
2021/12/11 13:17:49;;;;;;;18.65;9.98;;;;;;;;;;5012295;28;20026;-38
2021/12/11 13:20:18;;;;;;;16.25;8.88;;;;;;;;;;5014154;28;20024;-37
2021/12/11 13:22:46;;;;;;;27.25;12.13;;;;;;;;;;5005231;28;20053;-38
2021/12/11 13:25:14;;;;;;;21.92;10.73;;;;;;;;;;5013482;28;20176;-38
2021/12/11 13:27:41;;;;;;;18.02;9.85;;;;;;;;;;5008680;28;20442;-38
2021/12/11 13:30:10;;;;;;;18.85;9.98;;;;;;;;;;5009010;28;20069;-39
2021/12/11 13:32:36;;;;;;;28.55;12.00;;;;;;;;;;5010066;28;20111;-37
2021/12/11 13:35:06;;;;;;;20.73;10.85;;;;;;;;;;5013190;28;20619;-38
2021/12/11 13:37:33;;;;;;;18.38;9.32;;;;;;;;;;5011590;28;20026;-40
2021/12/11 13:39:59;;;;;;;17.38;9.45;;;;;;;;;;5007176;28;20026;-38
2021/12/11 13:42:28;;;;;;;20.40;9.55;;;;;;;;;;5012259;28;20018;-38
2021/12/11 13:44:56;;;;;;;15.48;8.82;;;;;;;;;;5011378;28;20492;-40
2021/12/11 13:47:24;;;;;;;19.30;10.02;;;;;;;;;;5009804;28;20057;-38
2021/12/11 13:49:51;;;;;;;17.30;9.60;;;;;;;;;;5016003;28;20033;-38
2021/12/11 13:52:17;;;;;;;21.08;10.05;;;;;;;;;;5013930;28;20066;-38
2021/12/11 13:54:43;;;;;;;16.65;9.02;;;;;;;;;;5013520;28;20026;-38
2021/12/11 13:57:14;;;;;;;17.63;8.82;;;;;;;;;;5006578;28;20462;-39
2021/12/11 13:59:40;;;;;;;17.73;8.93;;;;;;;;;;5010848;28;20087;-38
2021/12/11 14:02:06;;;;;;;17.80;9.40;;;;;;;;;;5010576;28;20053;-39
2021/12/11 14:04:34;;;;;;;21.92;9.88;;;;;;;;;;5012965;28;20056;-37
2021/12/11 14:07:19;;;;;;;19.58;10.68;;;;;;;;;;5008658;28;20018;-38
2021/12/11 14:09:48;;;;;;;23.40;10.73;;;;;;;;;;5009006;28;20022;-38
2021/12/11 14:12:14;;;;;;;20.75;10.90;;;;;;;;;;5006566;28;20124;-38
2021/12/11 14:14:41;;;;;;;18.48;10.48;;;;;;;;;;5009619;28;20062;-39
2021/12/11 14:17:08;;;;;;;20.65;10.65;;;;;;;;;;5012993;28;20054;-38
2021/12/11 14:19:34;;;;;;;16.15;9.25;;;;;;;;;;5011733;28;20929;-37
2021/12/11 14:22:01;;;;;;;22.58;11.15;;;;;;;;;;5010574;28;20361;-39
2021/12/11 14:24:29;;;;;;;20.55;10.10;;;;;;;;;;5012266;28;20014;-37
2021/12/11 14:26:55;;;;;;;17.75;9.88;;;;;;;;;;5009240;28;20041;-38
2021/12/11 14:29:21;;;;;;;16.98;9.88;;;;;;;;;;5010581;28;20068;-39
2021/12/11 14:31:47;;;;;;;17.33;10.05;;;;;;;;;;5009609;28;20058;-38
2021/12/11 14:34:14;;;;;;;25.42;10.57;;;;;;;;;;5012226;28;20032;-38
2021/12/11 14:36:40;;;;;;;24.67;12.55;;;;;;;;;;5012175;28;20105;-38
2021/12/11 14:39:17;;;;;;;18.60;10.57;;;;;;;;;;5012210;28;20034;-38
2021/12/11 14:41:48;;;;;;;23.83;10.98;;;;;;;;;;5011954;28;20473;-38
2021/12/11 14:44:20;;;;;;;28.42;13.35;;;;;;;;;;5011120;28;20037;-38